createdAt,value
2019-06-07T00:00:39.441Z,127.80
2019-06-07T00:01:30.446Z,117.00
2019-06-07T00:02:30.450Z,121.90
2019-06-07T00:03:30.546Z,116.40
2019-06-07T00:04:30.436Z,137.70
2019-06-07T00:05:30.435Z,114.00
2019-06-07T00:06:30.434Z,113.60
2019-06-07T00:07:30.441Z,117.40
2019-06-07T00:08:30.433Z,129.70
2019-06-07T00:09:30.434Z,126.80
2019-06-07T00:10:36.530Z,138.00
2019-06-07T00:11:30.461Z,104.80
2019-06-07T00:12:30.463Z,118.00
2019-06-07T00:13:30.433Z,126.60
2019-06-07T00:14:30.432Z,122.80
2019-06-07T00:15:30.434Z,111.70
2019-06-07T00:16:30.428Z,103.20
2019-06-07T00:17:30.437Z,132.20
2019-06-07T00:18:30.429Z,112.80
2019-06-07T00:19:30.431Z,127.30
2019-06-07T00:20:30.428Z,138.00
2019-06-07T00:22:12.928Z,111.70
2019-06-07T00:22:33.445Z,153.70
2019-06-07T00:23:30.425Z,140.80
2019-06-07T00:24:30.422Z,128.10
2019-06-07T00:25:30.425Z,122.80
2019-06-07T00:26:30.424Z,106.90
2019-06-07T00:27:30.458Z,113.80
2019-06-07T00:28:30.423Z,146.50
2019-06-07T00:29:30.422Z,142.50
2019-06-07T00:30:42.368Z,129.60
2019-06-07T00:31:30.417Z,134.20
2019-06-07T00:32:30.429Z,145.90
2019-06-07T00:33:30.421Z,149.10
2019-06-07T00:34:30.424Z,147.10
2019-06-07T00:35:30.420Z,169.90
2019-06-07T00:36:30.450Z,157.00
2019-06-07T00:37:30.433Z,195.80
2019-06-07T00:38:30.417Z,173.30
2019-06-07T00:39:30.417Z,178.60
2019-06-07T00:40:32.286Z,129.40
2019-06-07T00:41:30.427Z,180.40
2019-06-07T00:42:30.419Z,134.10
2019-06-07T00:43:30.431Z,174.20
2019-06-07T00:44:30.434Z,180.90
2019-06-07T00:45:30.413Z,188.30
2019-06-07T00:46:30.410Z,173.20
2019-06-07T00:47:30.416Z,186.50
2019-06-07T00:48:32.986Z,157.00
2019-06-07T00:49:40.437Z,212.40
2019-06-07T00:50:30.409Z,190.80
2019-06-07T00:51:49.603Z,206.50
2019-06-07T00:53:32.584Z,244.50
2019-06-07T00:54:30.408Z,190.50
2019-06-07T00:55:30.410Z,182.50
2019-06-07T00:56:30.409Z,201.30
2019-06-07T00:57:30.406Z,251.40
2019-06-07T00:58:30.417Z,349.90
2019-06-07T00:59:30.404Z,263.20
2019-06-07T01:00:30.409Z,227.30
2019-06-07T01:01:30.403Z,195.90
2019-06-07T01:02:31.649Z,165.60
2019-06-07T01:03:30.418Z,201.20
2019-06-07T01:04:30.403Z,270.60
2019-06-07T01:05:31.633Z,205.10
2019-06-07T01:06:30.401Z,143.20
2019-06-07T01:07:30.402Z,146.90
2019-06-07T01:08:30.920Z,193.60
2019-06-07T01:09:30.410Z,261.60
2019-06-07T01:10:52.444Z,262.80
2019-06-07T01:11:30.393Z,267.70
2019-06-07T01:12:30.394Z,366.80
2019-06-07T01:13:30.449Z,253.30
2019-06-07T01:14:30.402Z,520.60
2019-06-07T01:15:30.395Z,508.50
2019-06-07T01:16:54.841Z,408.70
2019-06-07T01:17:39.664Z,529.60
2019-06-07T01:18:38.330Z,625.80
2019-06-07T01:19:30.395Z,459.80
2019-06-07T01:20:30.392Z,638.10
2019-06-07T01:21:30.402Z,712.00
2019-06-07T01:22:30.399Z,336.20
2019-06-07T01:24:30.384Z,657.00
2019-06-07T01:25:30.392Z,650.80
2019-06-07T01:26:30.623Z,592.90
2019-06-07T01:27:30.392Z,503.50
2019-06-07T01:28:30.416Z,614.60
2019-06-07T01:29:31.186Z,517.50
2019-06-07T01:30:30.385Z,442.20
2019-06-07T01:31:31.489Z,642.60
2019-06-07T01:32:31.856Z,427.90
2019-06-07T01:33:49.750Z,561.20
2019-06-07T01:34:30.385Z,532.60
2019-06-07T01:35:30.387Z,361.80
2019-06-07T01:36:31.138Z,585.00
2019-06-07T01:37:30.585Z,556.40
2019-06-07T01:38:30.393Z,655.50
2019-06-07T01:39:31.864Z,537.50
2019-06-07T01:40:32.676Z,365.30
2019-06-07T01:41:30.931Z,441.30
2019-06-07T01:42:31.029Z,276.30
2019-06-07T01:43:31.014Z,384.80
2019-06-07T01:44:31.282Z,467.10
2019-06-07T01:45:31.188Z,279.50
2019-06-07T01:46:30.378Z,310.10
2019-06-07T01:47:32.173Z,250.40
2019-06-07T01:48:48.448Z,234.60
2019-06-07T01:49:30.388Z,260.40
2019-06-07T01:50:30.377Z,340.40
2019-06-07T01:51:30.662Z,274.70
2019-06-07T01:52:44.993Z,277.40
2019-06-07T01:53:31.573Z,221.70
2019-06-07T01:55:32.762Z,249.00
2019-06-07T01:56:30.376Z,180.40
2019-06-07T01:57:44.233Z,214.50
2019-06-07T01:58:30.370Z,267.00
2019-06-07T01:59:31.371Z,214.00
2019-06-07T02:00:32.538Z,153.70
2019-06-07T02:01:35.078Z,241.20
2019-06-07T02:02:31.829Z,226.60
2019-06-07T02:03:33.117Z,188.70
2019-06-07T02:04:33.021Z,174.00
2019-06-07T02:05:32.284Z,346.30
2019-06-07T02:06:32.220Z,268.40
2019-06-07T02:07:33.194Z,181.00
2019-06-07T02:08:34.395Z,292.60
2019-06-07T02:09:31.835Z,255.20
2019-06-07T02:10:33.437Z,340.50
2019-06-07T02:11:31.814Z,311.70
2019-06-07T02:12:40.327Z,482.50
2019-06-07T02:13:30.800Z,199.70
2019-06-07T02:14:33.212Z,330.10
2019-06-07T02:15:36.144Z,201.80
2019-06-07T02:16:32.512Z,402.50
2019-06-07T02:17:32.881Z,312.90
2019-06-07T02:18:34.668Z,384.50
2019-06-07T02:19:31.711Z,294.30
2019-06-07T02:20:34.242Z,378.00
2019-06-07T02:21:31.553Z,441.40
2019-06-07T02:22:32.385Z,328.90
2019-06-07T02:23:33.053Z,413.60
2019-06-07T02:24:35.056Z,238.20
2019-06-07T02:25:46.603Z,398.10
2019-06-07T02:26:32.580Z,345.40
2019-06-07T02:27:32.597Z,273.50
2019-06-07T02:28:44.290Z,221.70
2019-06-07T02:29:33.323Z,238.90
2019-06-07T02:30:47.197Z,249.60
2019-06-07T02:31:38.275Z,305.30
2019-06-07T02:32:34.648Z,259.60
2019-06-07T02:33:35.110Z,331.20
2019-06-07T02:34:36.019Z,371.80
2019-06-07T02:35:34.870Z,370.90
2019-06-07T02:36:38.461Z,259.70
2019-06-07T02:37:34.105Z,212.90
2019-06-07T02:38:35.915Z,262.60
2019-06-07T02:39:34.498Z,247.70
2019-06-07T02:40:34.549Z,221.90
2019-06-07T02:41:35.947Z,293.50
2019-06-07T02:42:39.121Z,235.50
2019-06-07T02:43:34.388Z,350.20
2019-06-07T02:44:37.819Z,307.00
2019-06-07T02:45:37.871Z,335.60
2019-06-07T02:46:40.171Z,416.30
2019-06-07T02:47:33.642Z,436.90
2019-06-07T02:48:35.257Z,288.30
2019-06-07T02:49:36.102Z,366.80
2019-06-07T02:50:35.394Z,324.80
2019-06-07T02:51:35.878Z,357.70
2019-06-07T02:52:34.409Z,390.50
2019-06-07T02:53:33.675Z,229.10
2019-06-07T02:54:36.112Z,290.50
2019-06-07T02:55:34.643Z,239.60
2019-06-07T02:56:52.495Z,261.20
2019-06-07T02:57:36.803Z,550.20
2019-06-07T02:58:35.300Z,229.90
2019-06-07T02:59:59.681Z,256.10
2019-06-07T03:01:05.484Z,309.90
2019-06-07T03:01:32.457Z,227.60
2019-06-07T03:02:33.547Z,218.10
2019-06-07T03:03:32.580Z,196.80
2019-06-07T03:04:36.795Z,236.80
2019-06-07T03:05:34.197Z,252.80
2019-06-07T03:06:35.712Z,183.70
2019-06-07T03:07:33.025Z,212.30
2019-06-07T03:08:30.966Z,214.50
2019-06-07T03:09:32.825Z,148.20
2019-06-07T03:10:32.269Z,150.60
2019-06-07T03:11:31.793Z,153.70
2019-06-07T03:12:33.256Z,158.70
2019-06-07T03:13:31.932Z,105.90
2019-06-07T03:14:32.485Z,109.30
2019-06-07T03:15:39.551Z,99.70
2019-06-07T03:16:31.206Z,99.40
2019-06-07T03:17:34.678Z,119.00
2019-06-07T03:18:31.698Z,102.30
2019-06-07T03:19:31.347Z,104.40
2019-06-07T03:20:32.799Z,98.50
2019-06-07T03:21:31.498Z,108.20
2019-06-07T03:22:32.069Z,102.90
2019-06-07T03:23:32.411Z,118.10
2019-06-07T03:24:33.144Z,113.10
2019-06-07T03:25:30.852Z,88.80
2019-06-07T03:26:34.869Z,109.70
2019-06-07T03:27:36.015Z,93.60
2019-06-07T03:28:34.256Z,84.90
2019-06-07T03:29:31.616Z,101.00
2019-06-07T03:30:52.737Z,69.50
2019-06-07T03:31:32.651Z,69.10
2019-06-07T03:32:35.934Z,73.90
2019-06-07T03:33:33.414Z,61.70
2019-06-07T03:34:38.161Z,57.50
2019-06-07T03:35:32.357Z,60.70
2019-06-07T03:36:32.026Z,75.10
2019-06-07T03:37:34.800Z,59.50
2019-06-07T03:38:34.408Z,69.70
2019-06-07T03:39:31.399Z,60.40
2019-06-07T03:40:31.696Z,62.50
2019-06-07T03:41:38.612Z,66.30
2019-06-07T03:42:31.624Z,46.80
2019-06-07T03:43:32.674Z,75.30
2019-06-07T03:44:35.079Z,75.40
2019-06-07T03:45:32.340Z,54.80
2019-06-07T03:46:34.349Z,61.90
2019-06-07T03:47:32.318Z,51.90
2019-06-07T03:48:32.278Z,59.30
2019-06-07T03:49:31.542Z,52.20
2019-06-07T03:50:33.428Z,70.30
2019-06-07T03:51:32.227Z,76.40
2019-06-07T03:52:35.028Z,55.30
2019-06-07T03:53:31.129Z,68.20
2019-06-07T03:54:32.098Z,57.70
2019-06-07T03:55:31.243Z,57.50
2019-06-07T03:56:31.785Z,64.30
2019-06-07T03:57:37.145Z,70.50
2019-06-07T03:58:32.569Z,56.70
2019-06-07T03:59:35.563Z,81.70
2019-06-07T04:00:32.921Z,88.10
2019-06-07T04:01:31.959Z,69.20
2019-06-07T04:02:31.046Z,63.30
2019-06-07T04:03:37.014Z,81.60
2019-06-07T04:04:32.278Z,87.30
2019-06-07T04:05:32.751Z,55.60
2019-06-07T04:06:32.573Z,61.40
2019-06-07T04:07:31.160Z,101.70
2019-06-07T04:08:30.789Z,74.30
2019-06-07T04:09:33.718Z,90.60
2019-06-07T04:10:51.718Z,71.50
2019-06-07T04:11:30.294Z,62.50
2019-06-07T04:12:31.838Z,148.50
2019-06-07T04:13:34.277Z,124.50
2019-06-07T04:14:30.932Z,65.10
2019-06-07T04:15:30.671Z,65.00
2019-06-07T04:16:35.006Z,67.40
2019-06-07T04:17:32.026Z,93.40
2019-06-07T04:18:30.653Z,72.60
2019-06-07T04:19:32.316Z,56.90
2019-06-07T04:20:32.907Z,71.20
2019-06-07T04:21:31.942Z,58.00
2019-06-07T04:22:31.400Z,59.50
2019-06-07T04:23:32.809Z,89.00
2019-06-07T04:24:31.112Z,66.10
2019-06-07T04:25:33.897Z,77.30
2019-06-07T04:26:31.411Z,90.70
2019-06-07T04:27:30.620Z,70.20
2019-06-07T04:29:29.941Z,67.70
2019-06-07T04:29:33.791Z,84.60
2019-06-07T04:30:34.183Z,46.60
2019-06-07T04:31:32.186Z,64.30
2019-06-07T04:32:32.068Z,93.10
2019-06-07T04:33:31.211Z,80.60
2019-06-07T04:34:34.942Z,55.00
2019-06-07T04:35:31.370Z,68.50
2019-06-07T04:36:45.990Z,68.60
2019-06-07T04:37:30.921Z,61.00
2019-06-07T04:38:32.692Z,55.20
2019-06-07T04:39:33.509Z,75.80
2019-06-07T04:40:30.724Z,67.60
2019-06-07T04:41:31.045Z,52.80
2019-06-07T04:42:34.428Z,58.80
2019-06-07T04:43:31.361Z,37.80
2019-06-07T04:44:31.170Z,48.30
2019-06-07T04:45:36.237Z,40.70
2019-06-07T04:46:31.581Z,43.10
2019-06-07T04:47:33.358Z,46.10
2019-06-07T04:48:31.306Z,42.60
2019-06-07T04:49:32.645Z,37.60
2019-06-07T04:50:33.828Z,37.50
2019-06-07T04:51:31.788Z,37.20
2019-06-07T04:52:32.484Z,40.40
2019-06-07T04:53:34.397Z,35.20
2019-06-07T04:54:32.126Z,39.40
2019-06-07T04:55:31.495Z,36.40
2019-06-07T04:56:32.843Z,31.20
2019-06-07T04:57:33.475Z,29.50
2019-06-07T04:58:31.408Z,28.40
2019-06-07T05:00:04.205Z,35.10
2019-06-07T05:01:31.111Z,31.10
2019-06-07T05:02:31.907Z,45.20
2019-06-07T05:03:34.742Z,28.50
2019-06-07T05:04:31.702Z,35.10
2019-06-07T05:05:31.800Z,27.20
2019-06-07T05:06:32.929Z,37.30
2019-06-07T05:07:30.987Z,36.10
2019-06-07T05:08:31.977Z,28.60
2019-06-07T05:09:30.265Z,35.60
2019-06-07T05:10:34.351Z,36.10
2019-06-07T05:11:31.981Z,39.90
2019-06-07T05:12:30.262Z,35.20
2019-06-07T05:13:31.603Z,34.10
2019-06-07T05:14:32.518Z,34.50
2019-06-07T05:15:30.257Z,39.30
2019-06-07T05:16:31.265Z,23.20
2019-06-07T05:17:31.712Z,28.40
2019-06-07T05:18:30.261Z,25.50
2019-06-07T05:19:31.198Z,37.00
2019-06-07T05:20:30.252Z,38.20
2019-06-07T05:21:50.285Z,23.60
2019-06-07T05:22:31.607Z,21.70
2019-06-07T05:24:03.575Z,19.50
2019-06-07T05:24:30.732Z,18.70
2019-06-07T05:25:31.837Z,32.60
2019-06-07T05:26:30.559Z,28.10
2019-06-07T05:27:33.574Z,26.50
2019-06-07T05:28:30.246Z,32.00
2019-06-07T05:29:30.779Z,23.20
2019-06-07T05:31:01.998Z,22.90
2019-06-07T05:31:31.081Z,22.70
2019-06-07T05:32:32.898Z,17.60
2019-06-07T05:33:31.135Z,21.20
2019-06-07T05:34:32.250Z,19.70
2019-06-07T05:35:30.643Z,19.10
2019-06-07T05:36:31.487Z,20.60
2019-06-07T05:37:33.511Z,17.00
2019-06-07T05:38:31.050Z,15.20
2019-06-07T05:39:32.110Z,12.70
2019-06-07T05:40:32.940Z,19.10
2019-06-07T05:41:32.302Z,17.80
2019-06-07T05:42:31.800Z,17.20
2019-06-07T05:43:34.326Z,17.00
2019-06-07T05:44:31.558Z,14.30
2019-06-07T05:45:30.239Z,15.80
2019-06-07T05:46:30.239Z,16.00
2019-06-07T05:47:30.237Z,16.00
2019-06-07T05:48:30.244Z,21.00
2019-06-07T05:49:30.248Z,26.00
2019-06-07T05:50:42.597Z,28.00
2019-06-07T05:51:30.250Z,17.70
2019-06-07T05:52:30.236Z,18.90
2019-06-07T05:53:31.721Z,22.30
2019-06-07T05:54:30.248Z,17.60
2019-06-07T05:55:30.235Z,16.00
2019-06-07T05:56:30.232Z,23.30
2019-06-07T05:57:30.230Z,34.70
2019-06-07T05:58:30.230Z,21.80
2019-06-07T05:59:30.231Z,27.60
2019-06-07T06:00:30.240Z,33.20
2019-06-07T06:01:45.992Z,27.30
2019-06-07T06:02:30.230Z,19.10
2019-06-07T06:03:30.228Z,19.70
2019-06-07T06:04:30.229Z,28.20
2019-06-07T06:05:34.415Z,20.20
2019-06-07T06:06:30.228Z,24.20
2019-06-07T06:07:30.227Z,24.20
2019-06-07T06:08:30.223Z,22.70
2019-06-07T06:09:30.223Z,20.30
2019-06-07T06:10:30.232Z,20.00
2019-06-07T06:11:48.070Z,20.60
2019-06-07T06:12:35.188Z,19.00
2019-06-07T06:13:30.226Z,20.20
2019-06-07T06:14:30.221Z,32.20
2019-06-07T06:15:42.169Z,19.80
2019-06-07T06:16:30.227Z,20.50
2019-06-07T06:17:30.235Z,18.40
2019-06-07T06:18:30.219Z,22.40
2019-06-07T06:19:30.227Z,24.10
2019-06-07T06:20:33.085Z,18.50
2019-06-07T06:21:30.221Z,18.70
2019-06-07T06:22:30.216Z,23.80
2019-06-07T06:23:30.215Z,32.90
2019-06-07T06:24:30.216Z,19.30
2019-06-07T06:25:33.139Z,18.70
2019-06-07T06:26:30.214Z,17.00
2019-06-07T06:28:03.485Z,19.20
2019-06-07T06:28:30.223Z,20.80
2019-06-07T06:29:30.216Z,18.20
2019-06-07T06:30:30.231Z,21.80
2019-06-07T06:31:30.210Z,18.40
2019-06-07T06:32:41.989Z,20.10
2019-06-07T06:33:34.407Z,26.70
2019-06-07T06:34:30.219Z,19.10
2019-06-07T06:35:30.229Z,27.10
2019-06-07T06:36:30.211Z,30.60
2019-06-07T06:37:30.212Z,24.60
2019-06-07T06:38:31.420Z,17.40
2019-06-07T06:39:30.205Z,13.80
2019-06-07T06:40:30.242Z,15.40
2019-06-07T06:41:30.205Z,13.40
2019-06-07T06:42:30.211Z,25.80
2019-06-07T06:43:30.205Z,12.80
2019-06-07T06:44:30.206Z,23.70
2019-06-07T06:45:30.204Z,21.20
2019-06-07T06:46:38.974Z,16.70
2019-06-07T06:47:30.204Z,12.50
2019-06-07T06:48:30.201Z,12.60
2019-06-07T06:49:30.206Z,13.80
2019-06-07T06:50:30.203Z,14.90
2019-06-07T06:51:30.208Z,14.60
2019-06-07T06:52:30.198Z,15.30
2019-06-07T06:53:30.200Z,13.40
2019-06-07T06:54:40.852Z,18.70
2019-06-07T06:55:30.202Z,15.00
2019-06-07T06:56:30.223Z,17.90
2019-06-07T06:57:30.196Z,17.30
2019-06-07T06:59:18.659Z,15.80
2019-06-07T06:59:39.512Z,10.30
2019-06-07T07:00:43.566Z,14.10
2019-06-07T07:01:30.204Z,14.40
2019-06-07T07:02:30.191Z,11.50
2019-06-07T07:03:56.503Z,11.60
2019-06-07T07:04:30.190Z,13.50
2019-06-07T07:05:30.192Z,12.10
2019-06-07T07:06:30.201Z,13.50
2019-06-07T07:07:30.240Z,25.70
2019-06-07T07:08:30.192Z,11.10
2019-06-07T07:09:30.196Z,13.70
2019-06-07T07:10:30.188Z,16.10
2019-06-07T07:11:30.196Z,13.70
2019-06-07T07:12:30.185Z,12.10
2019-06-07T07:13:30.186Z,13.30
2019-06-07T07:14:30.189Z,11.80
2019-06-07T07:15:30.194Z,10.70
2019-06-07T07:16:30.212Z,12.30
2019-06-07T07:17:47.958Z,13.10
2019-06-07T07:18:30.185Z,10.30
2019-06-07T07:19:30.184Z,14.70
2019-06-07T07:20:30.215Z,10.70
2019-06-07T07:21:30.194Z,10.40
2019-06-07T07:22:30.181Z,9.40
2019-06-07T07:23:30.182Z,10.80
2019-06-07T07:24:30.190Z,8.90
2019-06-07T07:25:30.181Z,10.00
2019-06-07T07:26:30.179Z,8.50
2019-06-07T07:27:30.185Z,8.30
2019-06-07T07:28:30.177Z,14.30
2019-06-07T07:29:30.181Z,15.50
2019-06-07T07:30:36.514Z,15.70
2019-06-07T07:31:30.357Z,13.80
2019-06-07T07:32:30.185Z,16.10
2019-06-07T07:34:21.067Z,9.00
2019-06-07T07:34:35.336Z,8.60
2019-06-07T07:35:30.179Z,7.30
2019-06-07T07:36:39.260Z,7.00
2019-06-07T07:37:30.184Z,7.70
2019-06-07T07:38:30.174Z,5.80
2019-06-07T07:39:30.175Z,8.30
2019-06-07T07:41:30.180Z,9.20
2019-06-07T07:42:30.183Z,15.00
2019-06-07T07:43:30.177Z,6.80
2019-06-07T07:44:30.169Z,7.40
2019-06-07T07:45:30.169Z,6.90
2019-06-07T07:46:30.444Z,8.10
2019-06-07T07:47:30.176Z,9.60
2019-06-07T07:48:30.166Z,6.80
2019-06-07T07:49:30.175Z,7.10
2019-06-07T07:50:30.167Z,8.10
2019-06-07T07:51:30.171Z,7.20
2019-06-07T07:52:30.174Z,7.80
2019-06-07T07:53:47.660Z,7.80
2019-06-07T07:54:30.165Z,7.20
2019-06-07T07:55:30.202Z,6.40
2019-06-07T07:56:30.161Z,7.80
2019-06-07T07:57:30.173Z,6.00
2019-06-07T07:58:30.163Z,7.10
2019-06-07T07:59:41.757Z,6.70
2019-06-07T08:00:52.435Z,7.40
2019-06-07T08:01:30.166Z,7.10
2019-06-07T08:02:30.166Z,6.60
2019-06-07T08:03:30.171Z,10.70
2019-06-07T08:05:13.038Z,10.40
2019-06-07T08:05:42.377Z,6.40
2019-06-07T08:06:30.158Z,8.70
2019-06-07T08:07:30.580Z,7.10
2019-06-07T08:08:31.091Z,7.30
2019-06-07T08:09:30.155Z,7.30
2019-06-07T08:10:30.154Z,13.60
2019-06-07T08:11:30.155Z,14.90
2019-06-07T08:12:30.157Z,7.90
2019-06-07T08:13:30.164Z,26.80
2019-06-07T08:14:30.154Z,7.00
2019-06-07T08:15:30.155Z,6.70
2019-06-07T08:16:30.154Z,7.30
2019-06-07T08:17:30.160Z,7.00
2019-06-07T08:18:30.160Z,8.30
2019-06-07T08:19:30.153Z,8.40
2019-06-07T08:20:30.149Z,7.20
2019-06-07T08:21:30.164Z,16.70
2019-06-07T08:22:30.154Z,6.60
2019-06-07T08:23:30.150Z,7.30
2019-06-07T08:24:30.211Z,7.30
2019-06-07T08:25:30.146Z,12.70
2019-06-07T08:26:30.149Z,9.40
2019-06-07T08:27:30.153Z,7.60
2019-06-07T08:28:30.146Z,7.80
2019-06-07T08:29:44.149Z,7.70
2019-06-07T08:31:05.750Z,12.80
2019-06-07T08:31:30.157Z,6.70
2019-06-07T08:32:30.144Z,6.10
2019-06-07T08:33:30.144Z,6.60
2019-06-07T08:34:30.191Z,6.60
2019-06-07T08:36:03.900Z,6.80
2019-06-07T08:36:41.345Z,6.50
2019-06-07T08:38:13.477Z,8.20
2019-06-07T08:38:46.910Z,7.00
2019-06-07T08:39:30.163Z,10.70
2019-06-07T08:40:30.138Z,9.80
2019-06-07T08:41:30.140Z,6.80
2019-06-07T08:43:30.140Z,7.50
2019-06-07T08:44:30.148Z,6.70
2019-06-07T08:45:30.139Z,11.80
2019-06-07T08:46:30.136Z,7.20
2019-06-07T08:47:30.193Z,7.80
2019-06-07T08:48:30.503Z,7.30
2019-06-07T08:49:30.146Z,7.40
2019-06-07T08:50:30.133Z,7.10
2019-06-07T08:51:30.132Z,7.50
2019-06-07T08:52:30.131Z,8.30
2019-06-07T08:53:30.131Z,7.00
2019-06-07T08:54:30.146Z,6.30
2019-06-07T08:55:30.132Z,5.60
2019-06-07T08:56:30.131Z,7.80
2019-06-07T08:57:30.131Z,7.00
2019-06-07T08:58:30.130Z,5.70
2019-06-07T08:59:30.140Z,7.50
2019-06-07T09:00:45.323Z,9.50
2019-06-07T09:01:30.163Z,12.70
2019-06-07T09:02:30.126Z,7.00
2019-06-07T09:03:30.127Z,10.50
2019-06-07T09:04:30.134Z,7.00
2019-06-07T09:05:30.125Z,7.40
2019-06-07T09:07:30.124Z,6.00
2019-06-07T09:08:31.022Z,7.50
2019-06-07T09:09:30.138Z,5.50
2019-06-07T09:10:30.127Z,7.00
2019-06-07T09:11:30.158Z,9.40
2019-06-07T09:12:30.164Z,6.70
2019-06-07T09:13:30.124Z,8.00
2019-06-07T09:14:30.120Z,6.60
2019-06-07T09:15:30.128Z,5.60
2019-06-07T09:16:30.119Z,5.10
2019-06-07T09:17:30.120Z,5.80
2019-06-07T09:18:42.207Z,6.80
2019-06-07T09:19:30.117Z,7.30
2019-06-07T09:20:36.994Z,7.00
2019-06-07T09:21:30.150Z,5.50
2019-06-07T09:22:30.117Z,40.20
2019-06-07T09:23:30.116Z,7.00
2019-06-07T09:24:30.114Z,7.60
2019-06-07T09:25:30.127Z,5.20
2019-06-07T09:26:30.115Z,5.50
2019-06-07T09:27:30.119Z,4.10
2019-06-07T09:28:30.113Z,8.00
2019-06-07T09:29:30.161Z,5.60
2019-06-07T09:30:30.124Z,5.60
2019-06-07T09:31:51.371Z,8.80
2019-06-07T09:32:30.111Z,6.30
2019-06-07T09:33:30.115Z,5.60
2019-06-07T09:34:30.115Z,5.40
2019-06-07T09:35:30.127Z,4.60
2019-06-07T09:36:30.113Z,5.00
2019-06-07T09:38:30.106Z,5.90
2019-06-07T09:39:30.106Z,4.90
2019-06-07T09:40:30.109Z,6.60
2019-06-07T09:41:46.772Z,5.00
2019-06-07T09:42:30.110Z,9.50
2019-06-07T09:44:00.871Z,5.60
2019-06-07T09:44:30.102Z,4.80
2019-06-07T09:45:30.102Z,5.70
2019-06-07T09:46:30.112Z,5.20
2019-06-07T09:47:32.838Z,4.50
2019-06-07T09:49:32.451Z,5.60
2019-06-07T09:50:30.102Z,5.10
2019-06-07T09:51:30.133Z,4.10
2019-06-07T09:52:30.098Z,4.90
2019-06-07T09:53:30.106Z,5.00
2019-06-07T09:55:04.038Z,4.80
2019-06-07T09:55:30.100Z,4.80
2019-06-07T09:56:30.109Z,4.40
2019-06-07T09:57:30.098Z,4.50
2019-06-07T09:58:50.988Z,9.80
2019-06-07T09:59:30.098Z,13.30
2019-06-07T10:00:41.371Z,3.90
2019-06-07T10:01:30.114Z,5.00
2019-06-07T10:02:30.097Z,3.70
2019-06-07T10:03:30.100Z,4.90
2019-06-07T10:04:31.572Z,4.40
2019-06-07T10:05:30.092Z,9.70
2019-06-07T10:06:30.100Z,4.60
2019-06-07T10:07:32.058Z,4.30
2019-06-07T10:11:30.109Z,5.20
2019-06-07T10:12:30.088Z,5.00
2019-06-07T10:13:30.113Z,8.00
2019-06-07T10:14:30.087Z,4.50
2019-06-07T10:15:30.088Z,3.80
2019-06-07T10:16:37.386Z,4.20
2019-06-07T10:17:30.087Z,8.00
2019-06-07T10:18:30.088Z,5.60
2019-06-07T10:19:30.086Z,6.20
2019-06-07T10:20:30.089Z,5.30
2019-06-07T10:21:30.094Z,10.90
2019-06-07T10:22:30.087Z,4.80
2019-06-07T10:23:30.088Z,5.40
2019-06-07T10:24:30.094Z,5.80
2019-06-07T10:25:30.083Z,4.70
2019-06-07T10:26:30.080Z,8.50
2019-06-07T10:27:30.094Z,5.80
2019-06-07T10:28:30.078Z,6.60
2019-06-07T10:29:30.094Z,5.00
2019-06-07T10:30:30.082Z,5.50
2019-06-07T10:31:30.088Z,10.00
2019-06-07T10:32:30.086Z,7.30
2019-06-07T10:33:30.078Z,5.00
2019-06-07T10:34:30.093Z,14.40
2019-06-07T10:35:30.082Z,8.90
2019-06-07T10:36:30.081Z,4.10
2019-06-07T10:37:30.087Z,7.10
2019-06-07T10:38:30.079Z,11.30
2019-06-07T10:39:30.080Z,8.70
2019-06-07T10:40:30.071Z,15.60
2019-06-07T10:41:30.074Z,9.20
2019-06-07T10:42:30.100Z,18.90
2019-06-07T10:43:30.074Z,11.40
2019-06-07T10:44:30.072Z,8.30
2019-06-07T10:45:30.077Z,12.80
2019-06-07T10:46:30.075Z,7.50
2019-06-07T10:47:30.086Z,15.20
2019-06-07T10:48:30.067Z,15.80
2019-06-07T10:49:30.068Z,6.50
2019-06-07T10:50:30.070Z,11.20
2019-06-07T10:51:30.072Z,9.80
2019-06-07T10:52:30.065Z,25.10
2019-06-07T10:53:30.076Z,8.50
2019-06-07T10:54:30.896Z,5.20
2019-06-07T10:55:30.065Z,9.30
2019-06-07T10:56:30.064Z,12.40
2019-06-07T10:57:30.063Z,5.20
2019-06-07T10:58:30.114Z,9.60
2019-06-07T10:59:30.062Z,7.20
2019-06-07T11:00:30.062Z,4.20
2019-06-07T11:01:30.060Z,4.70
2019-06-07T11:02:30.065Z,4.40
2019-06-07T11:03:30.070Z,15.10
2019-06-07T11:04:30.064Z,13.60
2019-06-07T11:05:30.066Z,5.80
2019-06-07T11:06:30.065Z,6.30
2019-06-07T11:07:30.059Z,6.00
2019-06-07T11:08:30.070Z,4.60
2019-06-07T11:09:30.063Z,8.10
2019-06-07T11:10:30.061Z,25.50
2019-06-07T11:11:30.067Z,18.90
2019-06-07T11:12:30.056Z,4.50
2019-06-07T11:13:30.064Z,5.50
2019-06-07T11:14:30.055Z,32.60
2019-06-07T11:15:30.053Z,8.60
2019-06-07T11:16:30.055Z,12.30
2019-06-07T11:17:30.052Z,5.10
2019-06-07T11:18:30.065Z,6.30
2019-06-07T11:19:30.054Z,4.10
2019-06-07T11:20:30.050Z,5.70
2019-06-07T11:21:30.051Z,4.70
2019-06-07T11:22:30.052Z,4.40
2019-06-07T11:23:30.059Z,8.60
2019-06-07T11:24:30.059Z,6.60
2019-06-07T11:25:30.050Z,5.30
2019-06-07T11:26:30.053Z,6.00
2019-06-07T11:27:30.051Z,4.60
2019-06-07T11:28:30.044Z,5.00
2019-06-07T11:29:30.053Z,4.20
2019-06-07T11:30:30.045Z,5.70
2019-06-07T11:31:30.046Z,4.50
2019-06-07T11:32:30.045Z,4.20
2019-06-07T11:33:30.044Z,4.90
2019-06-07T11:34:30.060Z,4.10
2019-06-07T11:35:30.044Z,5.60
2019-06-07T11:36:30.112Z,4.20
2019-06-07T11:37:30.049Z,3.80
2019-06-07T11:38:30.047Z,4.40
2019-06-07T11:39:30.055Z,3.90
2019-06-07T11:40:35.733Z,4.60
2019-06-07T11:41:30.037Z,4.40
2019-06-07T11:42:30.040Z,3.90
2019-06-07T11:43:30.054Z,5.00
2019-06-07T11:44:30.052Z,5.10
2019-06-07T11:45:30.036Z,7.50
2019-06-07T11:46:30.038Z,4.00
2019-06-07T11:47:30.076Z,4.90
2019-06-07T11:48:30.040Z,4.10
2019-06-07T11:49:30.046Z,5.00
2019-06-07T11:50:30.034Z,5.70
2019-06-07T11:51:30.036Z,7.50
2019-06-07T11:52:30.033Z,4.60
2019-06-07T11:53:30.033Z,4.50
2019-06-07T11:54:31.016Z,5.20
2019-06-07T11:55:30.033Z,4.60
2019-06-07T11:56:30.031Z,4.70
2019-06-07T11:57:30.058Z,4.00
2019-06-07T11:58:30.035Z,4.80
2019-06-07T11:59:30.052Z,3.60
2019-06-07T12:00:33.887Z,3.90
2019-06-07T12:01:30.550Z,3.70
2019-06-07T12:02:30.031Z,4.60
2019-06-07T12:03:30.032Z,4.40
2019-06-07T12:04:35.000Z,4.90
2019-06-07T12:05:30.033Z,4.40
2019-06-07T12:06:30.029Z,3.90
2019-06-07T12:07:30.029Z,4.30
2019-06-07T12:08:30.043Z,4.50
2019-06-07T12:09:30.034Z,4.60
2019-06-07T12:10:41.743Z,7.90
2019-06-07T12:11:30.032Z,3.50
2019-06-07T12:12:30.022Z,4.90
2019-06-07T12:13:30.022Z,3.80
2019-06-07T12:14:30.625Z,4.20
2019-06-07T12:15:30.028Z,4.80
2019-06-07T12:16:30.022Z,3.40
2019-06-07T12:17:30.022Z,4.30
2019-06-07T12:18:30.022Z,3.80
2019-06-07T12:19:30.023Z,10.60
2019-06-07T12:20:30.028Z,7.80
2019-06-07T12:21:30.016Z,4.70
2019-06-07T12:22:30.022Z,4.00
2019-06-07T12:23:30.017Z,3.60
2019-06-07T12:24:30.025Z,4.40
2019-06-07T12:25:30.025Z,4.30
2019-06-07T12:26:30.015Z,4.00
2019-06-07T12:27:30.016Z,4.30
2019-06-07T12:28:30.015Z,4.40
2019-06-07T12:29:30.013Z,4.20
2019-06-07T12:30:30.023Z,3.90
2019-06-07T12:31:30.028Z,3.70
2019-06-07T12:32:30.024Z,15.60
2019-06-07T12:33:30.021Z,4.20
2019-06-07T12:34:30.014Z,3.90
2019-06-07T12:35:30.023Z,3.60
2019-06-07T12:36:30.010Z,5.20
2019-06-07T12:37:43.061Z,4.10
2019-06-07T12:38:30.009Z,4.70
2019-06-07T12:39:30.009Z,6.10
2019-06-07T12:40:32.264Z,5.30
2019-06-07T12:41:30.010Z,4.30
2019-06-07T12:42:30.010Z,4.40
2019-06-07T12:43:30.007Z,4.60
2019-06-07T12:44:30.009Z,5.10
2019-06-07T12:45:44.334Z,5.00
2019-06-07T12:46:30.006Z,5.20
2019-06-07T12:47:30.004Z,4.70
2019-06-07T12:48:30.005Z,4.10
2019-06-07T12:49:30.002Z,3.80
2019-06-07T12:50:42.714Z,3.90
2019-06-07T12:51:30.011Z,4.30
2019-06-07T12:52:30.005Z,4.20
2019-06-07T12:53:30.001Z,4.60
2019-06-07T12:54:30.002Z,4.00
2019-06-07T12:55:30.002Z,3.80
2019-06-07T12:56:30.009Z,5.00
2019-06-07T12:57:30.013Z,9.40
2019-06-07T12:58:35.326Z,8.00
2019-06-07T12:59:30.006Z,3.70
2019-06-07T13:00:29.996Z,4.40
2019-06-07T13:01:30.004Z,3.80
2019-06-07T13:02:29.999Z,8.80
2019-06-07T13:03:30.009Z,4.30
2019-06-07T13:04:30.001Z,3.80
2019-06-07T13:05:29.997Z,4.10
2019-06-07T13:06:30.005Z,8.30
2019-06-07T13:07:30.707Z,3.50